createdAt,value
2022-08-24T00:00:38.138Z,18.30
2022-08-24T00:03:05.700Z,18.30
2022-08-24T00:05:33.211Z,18.30
2022-08-24T00:08:00.432Z,18.30
2022-08-24T00:10:27.792Z,18.30
2022-08-24T00:12:55.028Z,18.30
2022-08-24T00:15:22.417Z,18.30
2022-08-24T00:17:49.601Z,18.20
2022-08-24T00:20:17.114Z,18.20
2022-08-24T00:22:44.568Z,18.20
2022-08-24T00:25:13.211Z,18.10
2022-08-24T00:27:42.010Z,18.10
2022-08-24T00:30:12.651Z,18.10
2022-08-24T00:32:39.955Z,18.10
2022-08-24T00:35:09.012Z,18.10
2022-08-24T00:37:36.944Z,18.00
2022-08-24T00:40:14.489Z,18.00
2022-08-24T00:42:41.940Z,17.90
2022-08-24T00:45:12.018Z,17.90
2022-08-24T00:47:47.938Z,17.90
2022-08-24T00:50:36.453Z,17.90
2022-08-24T00:53:09.896Z,17.80
2022-08-24T00:55:42.422Z,17.80
2022-08-24T00:58:31.864Z,17.80
2022-08-24T01:01:03.995Z,17.70
2022-08-24T01:03:32.338Z,17.70
2022-08-24T01:06:00.226Z,17.60
2022-08-24T01:08:28.047Z,17.60
2022-08-24T01:11:12.590Z,17.60
2022-08-24T01:13:44.395Z,17.50
2022-08-24T01:16:13.278Z,17.50
2022-08-24T01:18:50.813Z,17.50
2022-08-24T01:21:37.428Z,17.40
2022-08-24T01:24:11.290Z,17.40
2022-08-24T01:26:43.771Z,17.40
2022-08-24T01:29:23.620Z,17.30
2022-08-24T01:31:51.846Z,17.30
2022-08-24T01:34:19.506Z,17.30
2022-08-24T01:37:00.440Z,17.30
2022-08-24T01:39:33.059Z,17.30
2022-08-24T01:42:00.984Z,17.30
2022-08-24T01:44:34.678Z,17.30
2022-08-24T01:47:07.283Z,17.30
2022-08-24T01:49:42.228Z,17.20
2022-08-24T01:52:12.875Z,17.20
2022-08-24T01:54:43.459Z,17.20
2022-08-24T01:57:16.229Z,17.10
2022-08-24T01:59:45.534Z,17.00
2022-08-24T02:02:26.361Z,17.00
2022-08-24T02:04:53.850Z,17.00
2022-08-24T02:07:23.272Z,16.90
2022-08-24T02:09:51.009Z,16.90
2022-08-24T02:12:19.392Z,16.90
2022-08-24T02:14:47.585Z,16.80
2022-08-24T02:17:15.243Z,16.80
2022-08-24T02:19:43.361Z,16.80
2022-08-24T02:22:11.116Z,16.80
2022-08-24T02:24:39.328Z,16.80
2022-08-24T02:27:07.151Z,16.70
2022-08-24T02:29:35.293Z,16.70
2022-08-24T02:32:03.865Z,16.70
2022-08-24T02:34:31.235Z,16.60
2022-08-24T02:36:58.624Z,16.60
2022-08-24T02:39:27.369Z,16.60
2022-08-24T02:41:55.933Z,16.60
2022-08-24T02:44:23.504Z,16.60
2022-08-24T02:46:50.832Z,16.50
2022-08-24T02:49:21.428Z,16.50
2022-08-24T02:51:50.724Z,16.50
2022-08-24T02:54:21.301Z,16.60
2022-08-24T02:56:51.751Z,16.50
2022-08-24T02:59:19.851Z,16.60
2022-08-24T03:01:49.718Z,16.50
2022-08-24T03:04:17.879Z,16.50
2022-08-24T03:06:45.285Z,16.60
2022-08-24T03:09:13.918Z,16.60
2022-08-24T03:11:45.326Z,16.60
2022-08-24T03:14:14.212Z,16.50
2022-08-24T03:16:41.817Z,16.50
2022-08-24T03:19:09.299Z,16.50
2022-08-24T03:21:38.106Z,16.60
2022-08-24T03:24:05.741Z,16.50
2022-08-24T03:26:33.429Z,16.50
2022-08-24T03:29:01.142Z,16.50
2022-08-24T03:31:30.470Z,16.40
2022-08-24T03:33:59.331Z,16.40
2022-08-24T03:36:26.979Z,16.40
2022-08-24T03:38:54.755Z,16.40
2022-08-24T03:41:23.429Z,16.40
2022-08-24T03:43:51.022Z,16.40
2022-08-24T03:46:25.352Z,16.40
2022-08-24T03:48:55.865Z,16.30
2022-08-24T03:51:26.815Z,16.30
2022-08-24T03:53:57.670Z,16.30
2022-08-24T03:56:28.585Z,16.20
2022-08-24T03:58:57.541Z,16.20
2022-08-24T04:01:28.162Z,16.20
2022-08-24T04:03:55.733Z,16.10
2022-08-24T04:06:29.735Z,16.10
2022-08-24T04:08:57.375Z,16.10
2022-08-24T04:11:27.813Z,16.10
2022-08-24T04:13:57.372Z,16.10
2022-08-24T04:16:26.095Z,16.00
2022-08-24T04:19:13.708Z,16.00
2022-08-24T04:21:41.541Z,16.00
2022-08-24T04:24:09.658Z,16.00
2022-08-24T04:26:45.559Z,16.00
2022-08-24T04:29:19.517Z,16.00
2022-08-24T04:31:51.744Z,16.10
2022-08-24T04:34:19.207Z,16.10
2022-08-24T04:36:47.258Z,16.20
2022-08-24T04:39:15.461Z,16.30
2022-08-24T04:41:48.537Z,16.20
2022-08-24T04:44:19.614Z,16.20
2022-08-24T04:46:47.615Z,16.20
2022-08-24T04:49:14.940Z,16.20
2022-08-24T04:51:43.234Z,16.20
2022-08-24T04:54:10.700Z,16.30
2022-08-24T04:56:38.939Z,16.30
2022-08-24T04:59:06.540Z,16.30
2022-08-24T05:01:35.160Z,16.40
2022-08-24T05:04:05.329Z,16.50
2022-08-24T05:06:33.126Z,16.50
2022-08-24T05:09:01.664Z,16.50
2022-08-24T05:11:30.031Z,16.60
2022-08-24T05:13:59.031Z,16.70
2022-08-24T05:16:28.049Z,16.70
2022-08-24T05:18:57.850Z,16.70
2022-08-24T05:21:28.382Z,16.80
2022-08-24T05:23:57.299Z,16.80
2022-08-24T05:26:29.238Z,16.90
2022-08-24T05:28:59.159Z,17.00
2022-08-24T05:31:30.831Z,17.00
2022-08-24T05:34:01.865Z,17.10
2022-08-24T05:36:32.520Z,17.20
2022-08-24T05:39:02.597Z,17.20
2022-08-24T05:41:31.570Z,17.30
2022-08-24T05:44:08.054Z,17.40
2022-08-24T05:46:35.626Z,17.50
2022-08-24T05:49:03.066Z,17.50
2022-08-24T05:51:33.301Z,17.60
2022-08-24T05:54:05.237Z,17.70
2022-08-24T05:56:51.699Z,17.70
2022-08-24T05:59:19.928Z,17.90
2022-08-24T06:01:48.626Z,17.90
2022-08-24T06:04:16.060Z,18.00
2022-08-24T06:06:43.415Z,18.00
2022-08-24T06:09:12.818Z,18.10
2022-08-24T06:11:41.615Z,18.20
2022-08-24T06:14:13.964Z,18.30
2022-08-24T06:16:54.046Z,18.40
2022-08-24T06:19:23.072Z,18.50
2022-08-24T06:21:52.409Z,18.50
2022-08-24T06:24:41.626Z,18.50
2022-08-24T06:27:21.222Z,18.60
2022-08-24T06:30:00.531Z,18.70
2022-08-24T06:32:48.255Z,18.90
2022-08-24T06:35:33.891Z,19.10
2022-08-24T06:38:01.841Z,19.10
2022-08-24T06:40:29.855Z,19.20
2022-08-24T06:43:02.841Z,19.40
2022-08-24T06:45:59.841Z,19.50
2022-08-24T06:48:34.554Z,19.70
2022-08-24T06:51:02.004Z,19.70
2022-08-24T06:53:29.925Z,19.80
2022-08-24T06:55:59.379Z,19.90
2022-08-24T06:58:32.551Z,20.00
2022-08-24T07:01:18.300Z,20.00
2022-08-24T07:03:47.502Z,20.10
2022-08-24T07:06:37.500Z,20.20
2022-08-24T07:09:05.826Z,20.30
2022-08-24T07:11:35.149Z,20.30
2022-08-24T07:14:02.540Z,20.40
2022-08-24T07:16:31.107Z,20.50
2022-08-24T07:19:03.692Z,20.60
2022-08-24T07:21:32.429Z,20.60
2022-08-24T07:24:02.439Z,20.70
2022-08-24T07:26:34.272Z,20.80
2022-08-24T07:29:30.345Z,20.90
2022-08-24T07:31:58.264Z,21.10
2022-08-24T07:34:34.385Z,21.10
2022-08-24T07:37:02.217Z,21.20
2022-08-24T07:39:30.392Z,21.30
2022-08-24T07:42:17.198Z,21.40
2022-08-24T07:44:46.012Z,21.50
2022-08-24T07:47:38.609Z,21.60
2022-08-24T07:50:03.476Z,21.60
2022-08-24T07:52:32.294Z,21.70
2022-08-24T07:54:59.833Z,21.80
2022-08-24T07:57:28.039Z,21.90
2022-08-24T07:59:55.478Z,22.10
2022-08-24T08:02:22.858Z,22.10
2022-08-24T08:04:55.662Z,22.30
2022-08-24T08:07:23.627Z,22.40
2022-08-24T08:09:51.381Z,22.60
2022-08-24T08:12:19.986Z,22.70
2022-08-24T08:14:55.377Z,22.70
2022-08-24T08:17:22.909Z,22.70
2022-08-24T08:19:50.986Z,22.70
2022-08-24T08:22:37.229Z,22.80
2022-08-24T08:25:38.545Z,22.90
2022-08-24T08:28:25.497Z,23.10
2022-08-24T08:30:55.096Z,23.20
2022-08-24T08:33:24.353Z,23.40
2022-08-24T08:35:59.007Z,23.50
2022-08-24T08:38:26.706Z,23.60
2022-08-24T08:41:39.549Z,23.50
2022-08-24T08:44:34.452Z,23.50
2022-08-24T08:47:24.206Z,23.60
2022-08-24T08:50:08.428Z,23.70
2022-08-24T08:53:06.938Z,23.90
2022-08-24T08:56:15.490Z,24.10
2022-08-24T08:58:59.464Z,24.20
2022-08-24T09:01:52.693Z,24.30
2022-08-24T09:05:10.956Z,24.40
2022-08-24T09:07:38.738Z,24.50
2022-08-24T09:10:27.519Z,24.70
2022-08-24T09:13:00.850Z,24.70
2022-08-24T09:16:26.248Z,24.70
2022-08-24T09:19:35.466Z,24.90
2022-08-24T09:22:19.958Z,25.00
2022-08-24T09:24:53.035Z,25.20
2022-08-24T09:27:40.695Z,25.40
2022-08-24T09:30:22.358Z,25.20
2022-08-24T09:33:07.450Z,25.40
2022-08-24T09:35:54.053Z,25.50
2022-08-24T09:38:48.456Z,25.70
2022-08-24T09:41:15.659Z,25.80
2022-08-24T09:44:09.854Z,25.80
2022-08-24T09:46:59.305Z,25.80
2022-08-24T09:49:33.389Z,25.80
2022-08-24T09:52:06.557Z,26.00
2022-08-24T09:54:42.315Z,26.00
2022-08-24T09:57:59.896Z,26.10
2022-08-24T10:00:54.569Z,26.20
2022-08-24T10:03:40.684Z,25.90
2022-08-24T10:06:12.712Z,26.10
2022-08-24T10:09:24.300Z,26.50
2022-08-24T10:11:57.634Z,26.90
2022-08-24T10:14:46.015Z,27.20
2022-08-24T10:17:39.174Z,27.50
2022-08-24T10:20:28.896Z,27.70
2022-08-24T10:23:08.355Z,27.90
2022-08-24T10:25:39.376Z,28.20
2022-08-24T10:28:52.018Z,28.50
2022-08-24T10:31:23.774Z,28.70
2022-08-24T10:34:16.093Z,28.20
2022-08-24T10:37:01.943Z,28.30
2022-08-24T10:40:09.364Z,28.90
2022-08-24T10:43:29.478Z,29.30
2022-08-24T10:46:05.927Z,30.00
2022-08-24T10:48:34.748Z,30.30
2022-08-24T10:51:34.713Z,30.50
2022-08-24T10:54:02.638Z,30.50
2022-08-24T10:56:41.809Z,30.50
2022-08-24T10:59:46.479Z,30.40
2022-08-24T11:02:37.172Z,30.20
2022-08-24T11:05:10.664Z,30.10
2022-08-24T11:07:56.318Z,30.10
2022-08-24T11:10:29.993Z,30.50
2022-08-24T11:13:24.684Z,30.60
2022-08-24T11:15:55.299Z,31.30
2022-08-24T11:18:23.272Z,32.00
2022-08-24T11:20:54.135Z,31.90
2022-08-24T11:23:30.978Z,31.70
2022-08-24T11:26:13.528Z,31.50
2022-08-24T11:28:50.929Z,31.30
2022-08-24T11:31:41.724Z,31.00
2022-08-24T11:34:19.372Z,31.40
2022-08-24T11:36:46.782Z,31.90
2022-08-24T11:39:17.972Z,32.20
2022-08-24T11:41:55.882Z,32.90
2022-08-24T11:44:45.617Z,33.60
2022-08-24T11:47:28.025Z,34.00
2022-08-24T11:49:59.274Z,34.30
2022-08-24T11:52:27.204Z,34.60
2022-08-24T11:55:12.510Z,34.50
2022-08-24T11:57:58.593Z,34.60
2022-08-24T12:00:39.162Z,34.80
2022-08-24T12:03:09.453Z,35.20
2022-08-24T12:05:44.112Z,35.70
2022-08-24T12:08:48.349Z,35.80
2022-08-24T12:11:34.653Z,36.60
2022-08-24T12:14:25.036Z,36.90
2022-08-24T12:17:10.539Z,37.20
2022-08-24T12:19:44.483Z,37.30
2022-08-24T12:22:14.875Z,37.60
2022-08-24T12:24:52.536Z,38.30
2022-08-24T12:27:30.143Z,38.30
2022-08-24T12:30:12.552Z,38.00
2022-08-24T12:32:43.973Z,38.30
2022-08-24T12:35:32.195Z,38.80
2022-08-24T12:38:22.397Z,39.20
2022-08-24T12:41:23.958Z,38.20
2022-08-24T12:43:59.052Z,36.40
2022-08-24T12:46:27.360Z,36.40
2022-08-24T12:49:12.929Z,36.30
2022-08-24T12:52:17.213Z,35.90
2022-08-24T12:54:47.192Z,34.80
2022-08-24T12:57:33.405Z,34.10
2022-08-24T13:00:15.389Z,33.60
2022-08-24T13:02:48.410Z,34.00
2022-08-24T13:05:19.316Z,34.20
2022-08-24T13:07:49.674Z,34.20
2022-08-24T13:10:45.279Z,34.90
2022-08-24T13:13:19.745Z,36.00
2022-08-24T13:15:54.061Z,37.10
2022-08-24T13:18:21.376Z,38.00
2022-08-24T13:20:50.177Z,38.70
2022-08-24T13:23:22.531Z,39.50
2022-08-24T13:25:56.589Z,40.40
2022-08-24T13:28:23.799Z,40.90
2022-08-24T13:30:54.067Z,41.40
2022-08-24T13:33:42.004Z,42.70
2022-08-24T13:36:28.869Z,44.50
2022-08-24T13:39:00.739Z,44.80
2022-08-24T13:41:34.104Z,45.40
2022-08-24T13:44:16.144Z,44.20
2022-08-24T13:47:05.663Z,42.50
2022-08-24T13:49:46.485Z,40.40
2022-08-24T13:52:29.747Z,38.90
2022-08-24T13:55:32.934Z,37.00
2022-08-24T13:58:31.999Z,36.10
2022-08-24T14:01:25.482Z,35.40
2022-08-24T14:03:56.939Z,35.00
2022-08-24T14:06:39.223Z,35.30
2022-08-24T14:09:53.523Z,35.40
2022-08-24T14:12:30.226Z,34.80
2022-08-24T14:15:16.392Z,34.10
2022-08-24T14:18:08.535Z,33.30
2022-08-24T14:21:17.996Z,33.70
2022-08-24T14:24:05.385Z,36.20
2022-08-24T14:26:38.828Z,39.30
2022-08-24T14:29:18.328Z,41.80
2022-08-24T14:32:12.879Z,42.70
2022-08-24T14:35:14.350Z,43.20
2022-08-24T14:38:12.770Z,44.90
2022-08-24T14:40:58.978Z,45.10
2022-08-24T14:43:48.569Z,43.80
2022-08-24T14:46:41.831Z,43.10
2022-08-24T14:49:17.747Z,42.10
2022-08-24T14:52:08.364Z,40.40
2022-08-24T14:54:44.443Z,38.50
2022-08-24T14:57:35.893Z,37.50
2022-08-24T15:00:14.767Z,36.20
2022-08-24T15:03:07.989Z,35.50
2022-08-24T15:05:35.300Z,34.30
2022-08-24T15:08:08.746Z,33.60
2022-08-24T15:10:52.807Z,33.20
2022-08-24T15:13:32.038Z,32.90
2022-08-24T15:16:08.128Z,33.90
2022-08-24T15:19:01.562Z,36.90
2022-08-24T15:21:30.538Z,39.30
2022-08-24T15:24:15.733Z,39.20
2022-08-24T15:27:41.038Z,38.80
2022-08-24T15:30:21.713Z,37.60
2022-08-24T15:33:01.331Z,36.60
2022-08-24T15:35:35.695Z,35.90
2022-08-24T15:38:21.796Z,35.70
2022-08-24T15:40:52.953Z,35.00
2022-08-24T15:43:20.711Z,34.70
2022-08-24T15:45:51.642Z,34.30
2022-08-24T15:48:20.649Z,34.00
2022-08-24T15:50:49.158Z,33.80
2022-08-24T15:53:39.264Z,33.70
2022-08-24T15:56:21.390Z,33.80
2022-08-24T15:58:50.303Z,33.70
2022-08-24T16:01:36.266Z,33.50
2022-08-24T16:04:13.607Z,33.70
2022-08-24T16:06:48.292Z,34.60
2022-08-24T16:09:21.515Z,36.70
2022-08-24T16:11:56.806Z,38.60
2022-08-24T16:14:40.758Z,40.10
2022-08-24T16:17:32.739Z,41.60
2022-08-24T16:20:07.795Z,42.90
2022-08-24T16:22:39.134Z,43.90
2022-08-24T16:25:13.275Z,43.30
2022-08-24T16:27:56.850Z,42.20
2022-08-24T16:30:57.660Z,41.30
2022-08-24T16:33:43.478Z,41.70
2022-08-24T16:36:15.664Z,41.80
2022-08-24T16:38:47.615Z,40.30
2022-08-24T16:41:21.329Z,39.60
2022-08-24T16:43:49.207Z,39.50
2022-08-24T16:46:21.832Z,39.40
2022-08-24T16:48:49.257Z,40.00
2022-08-24T16:51:16.497Z,40.10
2022-08-24T16:53:43.851Z,40.70
2022-08-24T16:56:15.981Z,40.60
2022-08-24T16:58:46.039Z,41.10
2022-08-24T17:01:14.195Z,41.80
2022-08-24T17:03:41.693Z,41.60
2022-08-24T17:06:12.524Z,41.00
2022-08-24T17:08:40.819Z,40.70
2022-08-24T17:11:09.393Z,40.70
2022-08-24T17:13:49.445Z,40.90
2022-08-24T17:16:19.867Z,40.90
2022-08-24T17:18:47.548Z,41.10
2022-08-24T17:21:14.853Z,41.00
2022-08-24T17:23:42.927Z,40.10
2022-08-24T17:26:20.543Z,39.70
2022-08-24T17:28:51.952Z,39.60
2022-08-24T17:31:19.448Z,39.40
2022-08-24T17:33:46.907Z,39.20
2022-08-24T17:36:16.150Z,39.00
2022-08-24T17:38:47.207Z,38.30
2022-08-24T17:41:18.151Z,37.80
2022-08-24T17:43:46.103Z,37.60
2022-08-24T17:46:15.175Z,36.80
2022-08-24T17:48:49.082Z,35.90
2022-08-24T17:51:17.067Z,34.50
2022-08-24T17:53:44.507Z,33.50
2022-08-24T17:56:16.274Z,32.20
2022-08-24T17:59:06.261Z,31.30
2022-08-24T18:01:38.598Z,30.40
2022-08-24T18:04:06.020Z,29.70
2022-08-24T18:06:33.487Z,29.10
2022-08-24T18:09:04.830Z,28.60
2022-08-24T18:11:32.208Z,28.10
2022-08-24T18:14:01.651Z,27.70
2022-08-24T18:16:29.217Z,27.20
2022-08-24T18:18:56.925Z,26.90
2022-08-24T18:21:24.440Z,26.70
2022-08-24T18:23:52.022Z,26.40
2022-08-24T18:26:27.643Z,26.20
2022-08-24T18:29:00.185Z,25.90
2022-08-24T18:31:29.569Z,25.70
2022-08-24T18:33:56.896Z,25.50
2022-08-24T18:36:24.107Z,25.30
2022-08-24T18:38:51.475Z,25.20
2022-08-24T18:41:18.817Z,25.10
2022-08-24T18:43:46.150Z,24.90
2022-08-24T18:46:13.411Z,24.70
2022-08-24T18:48:40.818Z,24.60
2022-08-24T18:51:08.069Z,24.50
2022-08-24T18:53:35.715Z,24.40
2022-08-24T18:56:09.362Z,24.30
2022-08-24T18:58:39.785Z,24.20
2022-08-24T19:01:07.726Z,24.10
2022-08-24T19:03:35.345Z,24.10
2022-08-24T19:06:02.689Z,24.00
2022-08-24T19:08:30.006Z,23.90
2022-08-24T19:10:57.313Z,23.90
2022-08-24T19:13:24.633Z,23.80
2022-08-24T19:15:52.228Z,23.70
2022-08-24T19:18:21.624Z,23.70
2022-08-24T19:20:54.743Z,23.60
2022-08-24T19:23:29.032Z,23.50
2022-08-24T19:25:56.978Z,23.50
2022-08-24T19:28:25.589Z,23.40
2022-08-24T19:30:59.679Z,23.40
2022-08-24T19:33:41.148Z,23.30
2022-08-24T19:36:08.618Z,23.20
2022-08-24T19:38:35.924Z,23.20
2022-08-24T19:41:11.698Z,23.10
2022-08-24T19:44:01.785Z,23.10
2022-08-24T19:46:29.046Z,23.00
2022-08-24T19:48:56.335Z,22.90
2022-08-24T19:51:23.664Z,22.90
2022-08-24T19:53:51.107Z,22.90
2022-08-24T19:56:18.408Z,22.80
2022-08-24T19:58:51.583Z,22.70
2022-08-24T20:01:27.717Z,22.70
2022-08-24T20:03:55.454Z,22.70
2022-08-24T20:06:24.053Z,22.60
2022-08-24T20:08:52.551Z,22.70
2022-08-24T20:11:20.399Z,22.60
2022-08-24T20:13:53.007Z,22.50
2022-08-24T20:16:22.458Z,22.50
2022-08-24T20:18:50.423Z,22.50
2022-08-24T20:21:18.957Z,22.40
2022-08-24T20:23:46.756Z,22.40
2022-08-24T20:26:14.501Z,22.40
2022-08-24T20:28:46.430Z,22.40
2022-08-24T20:31:14.979Z,22.30
2022-08-24T20:33:43.458Z,22.30
2022-08-24T20:36:36.484Z,22.20
2022-08-24T20:39:09.492Z,22.20
2022-08-24T20:41:37.368Z,22.10
2022-08-24T20:44:05.146Z,22.10
2022-08-24T20:46:32.702Z,22.10
2022-08-24T20:49:01.660Z,22.10
2022-08-24T20:51:29.411Z,22.10
2022-08-24T20:53:56.740Z,22.20
2022-08-24T20:56:38.067Z,22.20
2022-08-24T20:59:10.400Z,22.20
2022-08-24T21:01:39.133Z,22.10
2022-08-24T21:04:06.507Z,22.00
2022-08-24T21:06:34.561Z,22.10
2022-08-24T21:09:02.475Z,22.00
2022-08-24T21:11:29.760Z,22.00
2022-08-24T21:13:57.182Z,21.90
2022-08-24T21:16:24.513Z,21.90
2022-08-24T21:18:51.996Z,21.80
2022-08-24T21:21:19.669Z,21.80
2022-08-24T21:23:46.936Z,21.80
2022-08-24T21:26:17.833Z,21.70
2022-08-24T21:28:45.129Z,21.70
2022-08-24T21:31:12.382Z,21.60
2022-08-24T21:33:58.394Z,21.60
2022-08-24T21:36:27.399Z,21.60
2022-08-24T21:38:54.957Z,21.50
2022-08-24T21:41:22.741Z,21.40
2022-08-24T21:43:50.845Z,21.40
2022-08-24T21:46:18.444Z,21.40
2022-08-24T21:48:46.924Z,21.30
2022-08-24T21:51:14.278Z,21.30
2022-08-24T21:53:42.140Z,21.20
2022-08-24T21:56:10.073Z,21.30
2022-08-24T21:58:37.517Z,21.20
2022-08-24T22:01:05.113Z,21.20
2022-08-24T22:03:37.410Z,21.10
2022-08-24T22:06:08.965Z,21.10
2022-08-24T22:08:37.856Z,21.10
2022-08-24T22:11:06.190Z,21.00
2022-08-24T22:13:34.234Z,21.00
2022-08-24T22:16:01.750Z,20.90
2022-08-24T22:18:29.758Z,20.90
2022-08-24T22:20:57.625Z,20.90
2022-08-24T22:23:25.059Z,20.90
2022-08-24T22:25:53.698Z,20.80
2022-08-24T22:28:21.095Z,20.80
2022-08-24T22:30:49.346Z,20.80
2022-08-24T22:33:17.445Z,20.80
2022-08-24T22:35:45.970Z,20.80
2022-08-24T22:38:13.703Z,20.70
2022-08-24T22:40:43.229Z,20.70
2022-08-24T22:43:11.978Z,20.60
2022-08-24T22:45:39.467Z,20.60
2022-08-24T22:48:06.789Z,20.60
2022-08-24T22:50:34.160Z,20.50
2022-08-24T22:53:01.591Z,20.60
2022-08-24T22:55:32.608Z,20.50
2022-08-24T22:57:59.993Z,20.40
2022-08-24T23:00:27.612Z,20.40
2022-08-24T23:02:55.403Z,20.30
2022-08-24T23:05:22.906Z,20.30
2022-08-24T23:07:50.243Z,20.20
2022-08-24T23:10:17.789Z,20.10
2022-08-24T23:12:45.029Z,20.10
2022-08-24T23:15:14.029Z,20.10
2022-08-24T23:17:43.063Z,20.00
2022-08-24T23:20:11.263Z,20.00
2022-08-24T23:22:40.281Z,19.90
2022-08-24T23:25:11.723Z,19.90
2022-08-24T23:27:39.736Z,19.80
2022-08-24T23:30:10.502Z,19.80
2022-08-24T23:32:38.227Z,19.70
2022-08-24T23:35:06.424Z,19.70
2022-08-24T23:37:33.863Z,19.70
2022-08-24T23:40:01.349Z,19.60
2022-08-24T23:42:28.670Z,19.60
2022-08-24T23:44:55.914Z,19.60
2022-08-24T23:47:24.505Z,19.50
2022-08-24T23:49:51.762Z,19.50
2022-08-24T23:52:28.223Z,19.50
2022-08-24T23:55:21.672Z,19.40
2022-08-24T23:57:45.262Z,19.40
